Time;durP1;ratioP1;P1;durP2;ratioP2;P2;SDS_P1;SDS_P2;PMS_P1;PMS_P2;Temp;Humidity;BMP_temperature;BMP_pressure;BME280_temperature;BME280_humidity;BME280_pressure;Samples;Min_cycle;Max_cycle;Signal;HPM_P1;HPM_P2
2022/09/19 00:01:27;;;;;;;12.45;1.58;;;10.70;99.90;;;;;;5040819;28;20406;-76
2022/09/19 00:03:58;;;;;;;12.37;1.47;;;10.60;99.90;;;;;;5037070;28;20405;-75
2022/09/19 00:06:26;;;;;;;12.00;1.20;;;10.60;99.90;;;;;;5049868;28;20429;-76
2022/09/19 00:08:52;;;;;;;13.45;1.10;;;10.60;99.90;;;;;;5049899;28;20467;-75
2022/09/19 00:11:19;;;;;;;10.55;1.13;;;10.60;99.90;;;;;;5031448;28;20424;-76
2022/09/19 00:13:47;;;;;;;9.65;1.10;;;10.60;99.90;;;;;;5049862;28;20509;-75
2022/09/19 00:16:23;;;;;;;13.27;1.42;;;10.60;99.90;;;;;;5049236;28;20428;-76
2022/09/19 00:18:51;;;;;;;13.13;1.45;;;10.60;99.90;;;;;;5048772;28;20412;-75
2022/09/19 00:21:21;;;;;;;9.35;1.40;;;10.60;99.90;;;;;;5045319;28;20842;-76
2022/09/19 00:26:33;;;;;;;9.80;1.07;;;10.70;99.90;;;;;;5049095;28;20547;-76
2022/09/19 00:28:59;;;;;;;11.93;1.40;;;10.70;99.90;;;;;;5049728;28;20409;-76
2022/09/19 00:31:25;;;;;;;7.25;1.17;;;10.80;99.90;;;;;;5012254;28;20415;-75
2022/09/19 00:33:51;;;;;;;13.93;1.93;;;10.70;99.90;;;;;;5043065;28;20760;-75
2022/09/19 00:36:17;;;;;;;12.10;1.33;;;10.70;99.90;;;;;;5031955;28;20421;-76
2022/09/19 00:38:44;;;;;;;9.52;1.08;;;10.70;99.90;;;;;;5028385;28;20407;-76
2022/09/19 00:41:19;;;;;;;11.70;1.55;;;10.70;99.90;;;;;;5049031;28;20405;-75
2022/09/19 00:44:23;;;;;;;15.15;1.70;;;10.70;99.90;;;;;;5048959;28;20401;-76
2022/09/19 00:46:51;;;;;;;15.70;1.52;;;10.70;99.90;;;;;;5031090;28;20510;-75
2022/09/19 00:49:19;;;;;;;15.18;2.10;;;10.70;99.90;;;;;;5043951;28;20538;-76
2022/09/19 00:51:51;;;;;;;12.00;2.17;;;10.70;99.90;;;;;;5049163;28;20406;-77
2022/09/19 00:54:20;;;;;;;15.13;2.03;;;10.80;99.90;;;;;;5047337;28;20429;-76
2022/09/19 00:56:50;;;;;;;12.80;1.67;;;10.80;99.90;;;;;;5031329;28;20414;-75
2022/09/19 00:59:16;;;;;;;13.93;1.95;;;10.90;99.90;;;;;;5047605;28;20413;-76
2022/09/19 01:01:42;;;;;;;16.33;1.88;;;10.90;99.90;;;;;;5049185;28;20394;-76
2022/09/19 01:04:18;;;;;;;15.68;2.17;;;11.00;99.90;;;;;;5034639;28;20504;-75
2022/09/19 01:07:01;;;;;;;15.48;2.00;;;11.00;99.90;;;;;;5047194;28;20433;-75
2022/09/19 01:09:37;;;;;;;15.88;1.95;;;11.10;99.90;;;;;;5048408;28;20405;-76
2022/09/19 01:12:21;;;;;;;13.00;2.10;;;11.30;99.90;;;;;;5048559;28;20493;-76
2022/09/19 01:15:09;;;;;;;22.60;2.97;;;11.40;99.90;;;;;;5048550;28;20406;-75
2022/09/19 01:17:42;;;;;;;14.38;2.60;;;11.60;99.90;;;;;;5048726;28;20419;-76
2022/09/19 01:20:32;;;;;;;13.23;2.30;;;11.70;99.90;;;;;;5048544;28;21331;-75
2022/09/19 01:23:36;;;;;;;17.05;2.13;;;11.80;99.90;;;;;;5031052;28;20496;-75
2022/09/19 01:26:01;;;;;;;17.83;2.30;;;11.90;99.90;;;;;;4997238;28;20433;-75
2022/09/19 01:28:35;;;;;;;17.70;2.30;;;11.90;99.90;;;;;;5046924;28;20409;-75
2022/09/19 01:31:19;;;;;;;15.55;2.10;;;12.00;99.90;;;;;;5047564;28;20409;-75
2022/09/19 01:34:26;;;;;;;17.67;2.80;;;12.10;99.90;;;;;;5047503;28;20918;-74
2022/09/19 01:37:13;;;;;;;16.92;2.10;;;12.10;99.90;;;;;;5034879;28;20931;-75
2022/09/19 01:39:45;;;;;;;17.60;2.10;;;12.20;99.90;;;;;;5047662;28;20441;-74
2022/09/19 01:42:17;;;;;;;18.90;2.27;;;12.20;99.90;;;;;;5030308;28;20452;-75
2022/09/19 01:44:43;;;;;;;16.67;2.10;;;12.20;99.90;;;;;;5047884;28;20409;-75
2022/09/19 01:47:33;;;;;;;19.75;2.10;;;12.20;99.90;;;;;;5030074;28;20555;-75
2022/09/19 01:50:25;;;;;;;19.17;2.28;;;12.20;99.90;;;;;;5036766;28;20408;-75
2022/09/19 01:53:03;;;;;;;21.65;2.80;;;12.20;99.90;;;;;;5048365;28;20406;-76
2022/09/19 01:55:55;;;;;;;18.45;2.63;;;12.10;99.90;;;;;;5048262;28;21037;-74
2022/09/19 01:58:47;;;;;;;17.83;2.13;;;12.10;99.90;;;;;;5037674;28;20413;-74
2022/09/19 02:01:34;;;;;;;19.27;3.40;;;12.10;99.90;;;;;;5032190;28;20497;-74
2022/09/19 02:04:19;;;;;;;15.97;2.27;;;12.10;99.90;;;;;;5047824;28;20443;-76
2022/09/19 02:07:21;;;;;;;17.45;1.90;;;12.10;99.90;;;;;;5047344;28;20514;-76
2022/09/19 02:10:01;;;;;;;18.10;2.27;;;12.00;99.90;;;;;;5003820;28;20915;-75
2022/09/19 02:12:30;;;;;;;15.70;2.17;;;12.10;99.90;;;;;;5048013;28;20417;-75
2022/09/19 02:15:00;;;;;;;18.52;2.33;;;12.10;99.90;;;;;;5047681;28;20427;-75
2022/09/19 02:17:33;;;;;;;15.67;1.90;;;12.10;99.90;;;;;;5034741;28;20405;-75
2022/09/19 02:20:13;;;;;;;18.20;2.17;;;12.10;99.90;;;;;;5047666;28;20445;-75
2022/09/19 02:22:47;;;;;;;16.42;1.98;;;12.10;99.90;;;;;;5047881;28;20405;-74
2022/09/19 02:25:17;;;;;;;20.77;2.53;;;12.10;99.90;;;;;;5047697;28;20401;-74
2022/09/19 02:27:49;;;;;;;18.53;2.10;;;12.10;99.90;;;;;;5025048;28;20432;-75
2022/09/19 02:30:19;;;;;;;19.20;2.83;;;12.20;99.90;;;;;;5048299;28;20479;-75
2022/09/19 02:32:48;;;;;;;20.23;2.35;;;12.20;99.90;;;;;;5030042;28;20414;-75
2022/09/19 02:35:17;;;;;;;14.75;1.63;;;12.20;99.90;;;;;;5047770;28;20514;-74
2022/09/19 02:37:46;;;;;;;21.27;2.67;;;12.20;99.90;;;;;;5029719;28;20409;-75
2022/09/19 02:40:24;;;;;;;14.00;1.90;;;12.20;99.90;;;;;;5034069;28;20486;-75
2022/09/19 02:42:50;;;;;;;13.57;1.77;;;12.20;99.90;;;;;;5051152;28;20429;-75
2022/09/19 02:45:18;;;;;;;15.48;1.92;;;12.20;99.90;;;;;;5044755;28;20436;-75
2022/09/19 02:48:09;;;;;;;17.65;2.05;;;12.20;99.90;;;;;;5050717;28;20539;-75
2022/09/19 02:50:44;;;;;;;17.02;1.98;;;12.20;99.90;;;;;;5032912;28;20459;-74
2022/09/19 02:53:19;;;;;;;16.27;2.28;;;12.20;99.90;;;;;;5020472;28;20419;-75
2022/09/19 02:55:55;;;;;;;13.80;1.60;;;12.20;99.90;;;;;;5051355;28;20405;-75
2022/09/19 02:58:22;;;;;;;18.65;1.67;;;12.20;99.90;;;;;;5064118;28;20816;-75
2022/09/19 03:00:52;;;;;;;14.35;1.52;;;12.20;99.90;;;;;;5051576;28;20397;-75
2022/09/19 03:06:19;;;;;;;18.73;2.13;;;12.10;99.90;;;;;;5050955;28;20516;-75
2022/09/19 03:08:48;;;;;;;13.57;1.90;;;12.00;99.90;;;;;;5050939;28;20787;-75
2022/09/19 03:11:19;;;;;;;17.92;2.70;;;12.00;99.90;;;;;;5051326;28;20519;-75
2022/09/19 03:13:45;;;;;;;16.63;1.75;;;12.00;99.90;;;;;;5050810;28;20406;-75
2022/09/19 03:16:20;;;;;;;18.25;1.80;;;11.90;99.90;;;;;;5051339;28;20397;-75
2022/09/19 03:18:47;;;;;;;17.77;1.95;;;11.90;99.90;;;;;;5033624;28;20484;-75
2022/09/19 03:21:18;;;;;;;16.10;2.17;;;11.90;99.90;;;;;;5070635;28;20705;-75
2022/09/19 03:23:46;;;;;;;17.88;2.00;;;12.00;99.90;;;;;;5054814;28;20755;-75
2022/09/19 03:26:30;;;;;;;16.03;2.03;;;12.00;99.90;;;;;;5052749;28;21171;-75
2022/09/19 03:28:56;;;;;;;13.77;1.55;;;12.00;99.90;;;;;;5036248;28;20926;-75
2022/09/19 03:31:22;;;;;;;12.75;1.42;;;12.00;99.90;;;;;;5050998;28;20831;-74
2022/09/19 03:33:49;;;;;;;17.33;2.15;;;12.00;99.90;;;;;;5050642;28;20488;-75
2022/09/19 03:36:15;;;;;;;14.63;1.90;;;12.00;99.90;;;;;;5050263;28;21313;-75
2022/09/19 03:38:45;;;;;;;16.17;1.83;;;12.00;99.90;;;;;;5050842;28;20409;-75
2022/09/19 03:41:12;;;;;;;10.95;1.40;;;12.00;99.90;;;;;;5050669;28;20406;-75
2022/09/19 03:43:37;;;;;;;9.32;1.17;;;12.10;99.90;;;;;;5050449;28;20493;-75
2022/09/19 03:46:03;;;;;;;8.52;0.75;;;12.10;99.90;;;;;;5032656;28;20492;-75
2022/09/19 03:48:32;;;;;;;9.80;1.20;;;12.10;99.90;;;;;;5050422;28;20427;-76
2022/09/19 03:51:01;;;;;;;8.68;1.20;;;12.10;99.90;;;;;;5049238;28;20409;-75
2022/09/19 03:53:27;;;;;;;8.97;1.70;;;12.10;99.90;;;;;;5050772;28;20914;-75
2022/09/19 03:55:54;;;;;;;7.47;0.88;;;12.10;99.90;;;;;;5050390;28;20473;-75
2022/09/19 03:58:20;;;;;;;11.48;1.48;;;12.10;99.90;;;;;;5051384;28;20394;-75
2022/09/19 04:00:46;;;;;;;10.75;0.90;;;12.10;99.90;;;;;;5050065;28;20409;-75
2022/09/19 04:03:12;;;;;;;9.27;1.00;;;12.10;99.90;;;;;;5050343;28;20401;-75
2022/09/19 04:05:37;;;;;;;8.98;0.90;;;12.10;99.90;;;;;;5049996;28;21825;-75
2022/09/19 04:08:03;;;;;;;13.57;1.93;;;12.10;99.90;;;;;;5032171;28;20437;-75
2022/09/19 04:10:29;;;;;;;12.07;1.20;;;12.10;99.90;;;;;;5032235;28;20767;-76
2022/09/19 04:12:56;;;;;;;12.68;1.38;;;12.10;99.90;;;;;;5051880;28;20463;-75
2022/09/19 04:15:22;;;;;;;13.75;1.65;;;12.10;99.90;;;;;;5063214;28;20871;-75
2022/09/19 04:17:47;;;;;;;12.90;2.00;;;12.10;99.90;;;;;;5032126;28;20458;-75
2022/09/19 04:20:13;;;;;;;18.87;1.87;;;12.10;99.90;;;;;;5036015;28;20496;-75
2022/09/19 04:22:38;;;;;;;15.35;1.65;;;12.20;99.90;;;;;;5059345;28;20907;-75
2022/09/19 04:25:12;;;;;;;16.38;1.65;;;12.20;99.90;;;;;;5049623;28;20475;-75
2022/09/19 04:27:38;;;;;;;12.57;1.80;;;12.20;99.90;;;;;;5031686;28;20429;-75
2022/09/19 04:30:05;;;;;;;15.38;1.85;;;12.30;99.90;;;;;;5032022;28;20413;-74
2022/09/19 04:32:31;;;;;;;18.00;1.88;;;12.30;99.90;;;;;;5049447;28;20402;-75
2022/09/19 04:34:59;;;;;;;12.43;1.60;;;12.30;99.90;;;;;;5049330;28;20398;-75
2022/09/19 04:37:29;;;;;;;16.45;1.95;;;12.30;99.90;;;;;;5060201;28;20483;-75
2022/09/19 04:39:55;;;;;;;16.37;2.00;;;12.30;99.90;;;;;;5066395;28;20415;-74
2022/09/19 04:42:21;;;;;;;19.55;2.08;;;12.30;99.90;;;;;;5061611;28;20505;-74
2022/09/19 04:44:47;;;;;;;14.30;1.95;;;12.30;99.90;;;;;;5061018;28;20861;-75
2022/09/19 04:47:14;;;;;;;16.57;1.70;;;12.40;99.90;;;;;;5067565;28;21026;-74
2022/09/19 04:49:40;;;;;;;16.20;2.03;;;12.30;99.90;;;;;;5053237;28;20401;-74
2022/09/19 04:52:07;;;;;;;16.63;1.70;;;12.30;99.90;;;;;;5058343;28;20412;-75
2022/09/19 04:54:37;;;;;;;12.85;1.80;;;12.40;99.90;;;;;;5051666;28;20447;-75
2022/09/19 04:57:07;;;;;;;18.98;1.75;;;12.40;99.90;;;;;;5052548;28;20433;-75
2022/09/19 04:59:34;;;;;;;15.95;1.90;;;12.40;99.90;;;;;;5058603;28;20406;-75
2022/09/19 05:02:01;;;;;;;12.23;1.80;;;12.30;99.90;;;;;;5031171;28;20406;-75
2022/09/19 05:04:27;;;;;;;14.63;1.63;;;12.30;99.90;;;;;;5031246;28;20409;-74
2022/09/19 05:06:53;;;;;;;18.20;2.10;;;12.30;99.90;;;;;;5049137;28;20437;-74
2022/09/19 05:09:22;;;;;;;16.03;2.10;;;12.30;99.90;;;;;;5049732;28;20408;-74
2022/09/19 05:11:48;;;;;;;17.67;2.65;;;12.30;99.90;;;;;;5050958;28;20412;-74
2022/09/19 05:14:14;;;;;;;18.63;2.03;;;12.30;99.90;;;;;;5035244;28;20407;-74
2022/09/19 05:16:40;;;;;;;15.32;1.75;;;12.40;99.90;;;;;;5054014;28;20405;-73
2022/09/19 05:19:07;;;;;;;19.70;2.20;;;12.40;99.90;;;;;;5053431;28;20405;-74
2022/09/19 05:21:33;;;;;;;16.70;2.15;;;12.40;99.90;;;;;;5044429;28;20405;-74
2022/09/19 05:24:00;;;;;;;17.77;2.28;;;12.40;99.90;;;;;;5048785;28;20397;-75
2022/09/19 05:26:26;;;;;;;16.13;2.73;;;12.40;99.90;;;;;;5030006;28;20433;-75
2022/09/19 05:28:52;;;;;;;17.02;2.35;;;12.40;99.90;;;;;;5031060;28;20451;-75
2022/09/19 05:31:19;;;;;;;13.57;1.30;;;12.50;99.90;;;;;;5048273;28;20452;-75
2022/09/19 05:33:48;;;;;;;17.75;2.17;;;12.50;99.90;;;;;;5048459;28;20911;-75
2022/09/19 05:36:14;;;;;;;11.85;1.65;;;12.50;99.90;;;;;;5030318;28;20413;-74
2022/09/19 05:38:41;;;;;;;12.43;1.63;;;12.50;99.90;;;;;;5048101;28;20421;-74
2022/09/19 05:41:07;;;;;;;11.48;1.27;;;12.50;99.90;;;;;;5041435;28;20911;-75
2022/09/19 05:43:33;;;;;;;11.07;1.33;;;12.50;99.90;;;;;;5043054;28;20508;-74
2022/09/19 05:45:59;;;;;;;12.33;1.30;;;12.50;99.90;;;;;;5043215;28;20422;-75
2022/09/19 05:48:25;;;;;;;14.73;1.85;;;12.40;99.90;;;;;;5047964;28;20428;-70
2022/09/19 05:50:52;;;;;;;11.88;1.70;;;12.50;99.90;;;;;;5061072;28;20446;-75
2022/09/19 05:56:04;;;;;;;14.10;1.60;;;12.50;99.90;;;;;;5035707;28;20528;-74
2022/09/19 05:58:31;;;;;;;11.55;1.60;;;12.50;99.90;;;;;;5048576;28;20508;-75
2022/09/19 06:00:57;;;;;;;16.83;1.48;;;12.60;99.90;;;;;;5048456;28;20447;-75
2022/09/19 06:03:22;;;;;;;14.52;1.73;;;12.60;99.90;;;;;;5048419;28;20405;-74
2022/09/19 06:05:51;;;;;;;10.75;1.30;;;12.60;99.90;;;;;;5047975;28;20416;-74
2022/09/19 06:08:19;;;;;;;15.70;1.70;;;12.60;99.90;;;;;;5048310;28;20423;-75
2022/09/19 06:10:46;;;;;;;14.43;1.83;;;12.60;99.90;;;;;;5048329;28;20410;-74
2022/09/19 06:13:14;;;;;;;13.73;1.70;;;12.50;99.90;;;;;;5047674;28;20760;-74
2022/09/19 06:15:39;;;;;;;15.60;1.50;;;12.50;99.90;;;;;;5047957;28;20488;-74
2022/09/19 06:18:06;;;;;;;19.35;1.80;;;12.50;99.90;;;;;;5013561;28;20485;-74
2022/09/19 06:20:31;;;;;;;13.85;1.85;;;12.50;99.90;;;;;;5056182;28;20392;-75
2022/09/19 06:23:02;;;;;;;16.67;1.77;;;12.50;99.90;;;;;;5052533;28;20759;-73
2022/09/19 06:25:31;;;;;;;17.77;1.80;;;12.50;99.90;;;;;;5056983;28;20404;-74
2022/09/19 06:28:07;;;;;;;16.42;2.13;;;12.50;99.90;;;;;;5051243;28;20432;-74
2022/09/19 06:30:33;;;;;;;17.70;1.80;;;12.50;99.90;;;;;;5058046;28;20473;-75
2022/09/19 06:32:59;;;;;;;17.52;1.98;;;12.50;99.90;;;;;;5049599;28;20424;-74
2022/09/19 06:35:27;;;;;;;17.40;2.13;;;12.50;99.90;;;;;;5047537;28;20409;-74
2022/09/19 06:37:58;;;;;;;17.10;2.13;;;12.50;99.90;;;;;;5047505;28;20440;-75
2022/09/19 06:40:24;;;;;;;14.97;2.00;;;12.50;99.90;;;;;;5059553;28;20404;-74
2022/09/19 06:42:56;;;;;;;18.20;1.98;;;12.60;99.90;;;;;;5048130;28;20412;-74
2022/09/19 06:45:23;;;;;;;15.40;2.10;;;12.70;99.90;;;;;;5047861;28;20401;-74
2022/09/19 06:47:48;;;;;;;17.17;2.55;;;12.70;99.90;;;;;;5047207;28;20520;-75
2022/09/19 06:50:16;;;;;;;11.10;1.80;;;12.90;99.90;;;;;;5047618;28;20527;-74
2022/09/19 06:52:50;;;;;;;17.17;1.88;;;12.90;99.90;;;;;;5034234;28;20419;-74
2022/09/19 06:55:16;;;;;;;13.02;2.25;;;13.00;99.90;;;;;;5029249;28;20421;-74
2022/09/19 06:57:41;;;;;;;12.23;1.30;;;13.10;99.90;;;;;;5046997;28;20504;-75
2022/09/19 07:00:08;;;;;;;14.52;1.45;;;13.20;99.90;;;;;;5047123;28;20903;-74
2022/09/19 07:02:33;;;;;;;14.90;1.80;;;13.40;99.90;;;;;;5054322;28;20870;-75
2022/09/19 07:04:59;;;;;;;14.57;1.50;;;13.50;99.90;;;;;;5050958;28;20409;-76
2022/09/19 07:07:24;;;;;;;13.30;1.70;;;13.60;99.90;;;;;;5028822;28;20460;-75
2022/09/19 07:09:50;;;;;;;15.13;1.90;;;13.70;99.90;;;;;;5047509;28;20419;-75
2022/09/19 07:12:15;;;;;;;17.67;2.43;;;13.70;99.90;;;;;;5058720;28;20850;-74
2022/09/19 07:14:41;;;;;;;15.07;2.30;;;13.80;99.90;;;;;;5028119;28;20412;-75
2022/09/19 07:17:07;;;;;;;17.20;2.50;;;13.80;99.90;;;;;;5029401;28;20492;-75
2022/09/19 07:19:32;;;;;;;16.52;1.80;;;13.90;99.90;;;;;;5047009;28;20398;-75
2022/09/19 07:21:58;;;;;;;15.80;2.20;;;14.00;99.90;;;;;;5029238;28;21072;-75
2022/09/19 07:24:24;;;;;;;15.77;2.17;;;14.10;99.90;;;;;;5046991;28;20446;-75
2022/09/19 07:26:49;;;;;;;16.42;2.42;;;14.20;99.90;;;;;;5049890;28;20435;-75
2022/09/19 07:29:15;;;;;;;18.87;3.20;;;14.20;99.90;;;;;;5063636;28;20403;-75
2022/09/19 07:31:41;;;;;;;11.10;1.88;;;14.30;99.90;;;;;;5050193;28;21001;-75
2022/09/19 07:34:06;;;;;;;17.33;2.23;;;14.30;99.90;;;;;;5029597;28;20402;-75
2022/09/19 07:36:32;;;;;;;13.13;1.92;;;14.40;99.90;;;;;;5050705;28;20405;-74
2022/09/19 07:38:58;;;;;;;16.40;2.17;;;14.40;99.90;;;;;;5049202;28;20756;-75
2022/09/19 07:41:24;;;;;;;17.43;2.30;;;14.50;99.90;;;;;;5050631;28;20405;-75
2022/09/19 07:43:49;;;;;;;13.95;2.10;;;14.60;99.90;;;;;;5063855;28;21518;-74
2022/09/19 07:46:17;;;;;;;14.60;1.90;;;14.60;99.90;;;;;;5050091;28;20421;-74
2022/09/19 07:48:43;;;;;;;12.40;2.25;;;14.60;99.90;;;;;;5032240;28;20416;-75
2022/09/19 07:51:09;;;;;;;13.05;2.22;;;14.50;99.90;;;;;;5050411;28;20417;-74
2022/09/19 07:53:35;;;;;;;17.43;1.90;;;14.40;99.90;;;;;;5050135;28;20406;-75
2022/09/19 07:56:01;;;;;;;14.63;2.28;;;14.30;99.90;;;;;;5049977;28;20393;-75
2022/09/19 07:58:27;;;;;;;13.68;1.88;;;14.30;99.90;;;;;;5050290;28;20409;-75
2022/09/19 08:00:53;;;;;;;11.52;1.40;;;14.40;99.90;;;;;;5050303;28;20409;-75
2022/09/19 08:03:20;;;;;;;11.82;1.40;;;14.40;99.90;;;;;;5050849;28;20407;-75
2022/09/19 08:05:49;;;;;;;13.27;1.90;;;14.40;99.90;;;;;;5069314;28;20451;-75
2022/09/19 08:08:17;;;;;;;14.10;2.20;;;14.50;99.90;;;;;;5037033;28;20413;-75
2022/09/19 08:10:44;;;;;;;14.13;1.90;;;14.50;99.90;;;;;;5029074;28;20467;-74
2022/09/19 08:13:14;;;;;;;13.02;2.00;;;14.70;99.90;;;;;;5058360;28;20453;-75
2022/09/19 08:15:41;;;;;;;11.63;1.80;;;15.00;99.90;;;;;;5032036;28;20414;-75
2022/09/19 08:18:13;;;;;;;9.82;1.17;;;15.20;99.90;;;;;;5030948;28;20894;-75
2022/09/19 08:20:40;;;;;;;12.15;1.60;;;15.40;99.90;;;;;;5032030;28;20417;-75
2022/09/19 08:23:09;;;;;;;13.23;1.77;;;15.50;99.90;;;;;;5049793;28;20398;-75
2022/09/19 08:25:38;;;;;;;11.07;1.70;;;15.60;99.90;;;;;;5049668;28;20406;-75
2022/09/19 08:28:04;;;;;;;12.32;1.55;;;15.60;99.90;;;;;;5031235;28;20512;-75
2022/09/19 08:30:33;;;;;;;13.82;2.17;;;15.60;99.90;;;;;;5049783;28;20404;-75
2022/09/19 08:33:00;;;;;;;15.50;1.83;;;15.60;99.90;;;;;;5028428;28;20863;-75
2022/09/19 08:35:27;;;;;;;11.00;1.70;;;15.60;99.90;;;;;;5042327;28;20831;-75
2022/09/19 08:37:58;;;;;;;12.65;1.55;;;15.70;99.90;;;;;;5049202;28;20436;-75
2022/09/19 08:40:28;;;;;;;9.77;1.85;;;15.70;99.90;;;;;;5048967;28;20953;-75
2022/09/19 08:43:17;;;;;;;9.93;1.57;;;15.60;99.90;;;;;;5048440;28;20417;-75
2022/09/19 08:46:01;;;;;;;10.13;1.60;;;15.50;99.90;;;;;;5049307;28;20452;-75
2022/09/19 08:48:38;;;;;;;10.80;1.45;;;15.50;99.90;;;;;;5049520;28;20878;-75
2022/09/19 08:51:29;;;;;;;8.65;1.10;;;15.50;99.90;;;;;;5048668;28;20760;-75
2022/09/19 08:54:05;;;;;;;13.97;1.67;;;15.60;99.90;;;;;;5048611;28;20418;-75
2022/09/19 08:56:35;;;;;;;14.18;2.20;;;15.70;99.90;;;;;;5049130;28;20447;-75
2022/09/19 08:59:06;;;;;;;11.30;1.75;;;15.80;99.90;;;;;;5048793;28;20401;-75
2022/09/19 09:01:35;;;;;;;11.68;1.95;;;15.90;99.90;;;;;;5048658;28;20963;-75
2022/09/19 09:04:30;;;;;;;13.53;1.83;;;16.00;99.90;;;;;;5050002;28;20760;-75
2022/09/19 09:07:17;;;;;;;10.00;1.58;;;16.00;99.90;;;;;;5048817;28;20901;-74
2022/09/19 09:09:52;;;;;;;8.68;1.38;;;16.00;99.90;;;;;;5048917;28;20907;-75
2022/09/19 09:12:23;;;;;;;10.90;1.10;;;16.50;99.90;;;;;;5019485;28;20413;-75
2022/09/19 09:15:04;;;;;;;9.25;1.40;;;17.00;99.90;;;;;;5048744;28;20416;-74
2022/09/19 09:18:04;;;;;;;9.52;1.20;;;17.00;99.90;;;;;;5048926;28;20510;-74
2022/09/19 09:20:48;;;;;;;12.00;1.10;;;16.90;99.90;;;;;;5045889;28;20408;-75
2022/09/19 09:23:22;;;;;;;10.02;1.40;;;16.90;99.90;;;;;;5050244;28;20775;-74
2022/09/19 09:25:49;;;;;;;9.07;1.27;;;16.70;99.90;;;;;;5046945;28;20503;-75
2022/09/19 09:28:25;;;;;;;9.03;1.10;;;16.60;99.90;;;;;;5029905;28;20465;-76
2022/09/19 09:30:53;;;;;;;10.80;1.77;;;16.50;99.90;;;;;;5047852;28;20797;-74
2022/09/19 09:33:22;;;;;;;13.55;2.08;;;17.00;99.90;;;;;;5048279;28;20843;-73
2022/09/19 09:35:54;;;;;;;12.50;1.60;;;18.00;99.90;;;;;;5046069;28;20417;-74
2022/09/19 09:38:33;;;;;;;15.50;1.92;;;19.00;99.90;;;;;;5047632;28;20405;-73
2022/09/19 09:41:47;;;;;;;14.27;1.95;;;20.20;99.90;;;;;;5029456;28;20795;-74
2022/09/19 09:44:13;;;;;;;15.23;2.05;;;20.90;99.90;;;;;;4966464;28;20511;-74
2022/09/19 09:47:06;;;;;;;15.18;2.40;;;21.80;99.10;;;;;;5012486;28;20863;-74
2022/09/19 09:49:33;;;;;;;18.17;2.47;;;22.20;97.90;;;;;;5046814;28;20463;-74
2022/09/19 09:52:03;;;;;;;13.73;2.10;;;22.60;95.60;;;;;;5047078;28;20473;-73
2022/09/19 09:57:41;;;;;;;12.52;2.03;;;21.80;94.90;;;;;;5047268;28;20508;-74
2022/09/19 10:06:11;;;;;;;10.30;1.63;;;19.00;96.80;;;;;;5037148;28;20424;-73
2022/09/19 10:09:01;;;;;;;12.23;2.03;;;18.50;97.30;;;;;;5030116;28;20975;-73
2022/09/19 10:11:56;;;;;;;11.77;1.60;;;18.00;97.80;;;;;;5047027;28;20484;-72
2022/09/19 10:14:28;;;;;;;9.55;1.77;;;17.60;97.90;;;;;;5047929;28;20425;-74
2022/09/19 10:17:00;;;;;;;16.23;2.50;;;17.50;98.10;;;;;;5047851;28;20410;-73
2022/09/19 10:19:35;;;;;;;11.45;2.03;;;17.40;99.20;;;;;;5047998;28;20492;-73
2022/09/19 10:22:01;;;;;;;16.13;2.40;;;17.40;99.70;;;;;;5042107;28;20453;-73
2022/09/19 10:24:54;;;;;;;15.05;2.03;;;17.30;99.90;;;;;;5047715;28;20503;-73
2022/09/19 10:27:23;;;;;;;15.98;2.33;;;16.90;99.90;;;;;;5017292;28;20439;-75
2022/09/19 10:29:59;;;;;;;13.85;2.08;;;16.60;99.90;;;;;;5045514;28;20458;-74
2022/09/19 10:32:34;;;;;;;15.32;2.33;;;16.20;99.90;;;;;;5047857;28;20413;-73
2022/09/19 10:35:17;;;;;;;11.48;2.00;;;15.90;99.90;;;;;;5047831;28;20409;-75
2022/09/19 10:37:43;;;;;;;14.27;1.95;;;15.80;99.90;;;;;;5047624;28;20405;-74
2022/09/19 10:40:15;;;;;;;13.15;1.73;;;15.60;99.90;;;;;;5029679;28;20429;-73
2022/09/19 10:42:42;;;;;;;11.55;1.48;;;15.60;99.90;;;;;;5047686;28;20409;-73
2022/09/19 10:45:18;;;;;;;9.20;1.40;;;15.70;99.90;;;;;;5029886;28;20413;-75
2022/09/19 10:47:47;;;;;;;9.65;1.75;;;15.90;99.90;;;;;;5059961;28;20524;-73
2022/09/19 10:50:17;;;;;;;11.18;1.65;;;16.30;99.90;;;;;;5047486;28;20505;-74
2022/09/19 10:52:46;;;;;;;10.07;1.48;;;16.50;99.90;;;;;;5047005;28;20409;-74
2022/09/19 10:55:15;;;;;;;9.77;1.90;;;16.50;99.90;;;;;;5026520;28;20893;-73
2022/09/19 10:57:48;;;;;;;11.50;1.27;;;16.70;99.90;;;;;;5024068;28;20445;-74
2022/09/19 11:00:22;;;;;;;7.35;0.90;;;16.80;99.90;;;;;;5049139;28;20497;-73
2022/09/19 11:02:57;;;;;;;7.82;0.98;;;16.80;99.90;;;;;;5050418;28;20405;-73
2022/09/19 11:05:26;;;;;;;8.70;0.90;;;17.10;99.90;;;;;;5051255;28;20934;-74
2022/09/19 11:08:00;;;;;;;7.85;1.17;;;17.80;99.90;;;;;;5051064;28;20429;-74
2022/09/19 11:10:40;;;;;;;8.32;1.23;;;18.80;99.90;;;;;;5033300;28;20441;-74
2022/09/19 11:13:14;;;;;;;7.35;1.02;;;20.00;98.50;;;;;;5039792;28;20413;-74
2022/09/19 11:16:05;;;;;;;9.80;2.08;;;20.60;97.30;;;;;;5051062;28;20417;-74
2022/09/19 11:19:01;;;;;;;8.43;1.20;;;21.40;96.50;;;;;;5051978;28;20448;-74
2022/09/19 11:21:44;;;;;;;10.35;1.15;;;22.10;94.90;;;;;;5014670;28;20413;-75
2022/09/19 11:24:34;;;;;;;8.43;1.08;;;22.30;94.70;;;;;;5056597;28;20432;-74
2022/09/19 11:27:31;;;;;;;5.68;1.15;;;22.60;93.60;;;;;;5061167;28;20433;-74
2022/09/19 11:30:05;;;;;;;7.55;1.00;;;23.00;92.40;;;;;;5039414;28;20854;-74
2022/09/19 11:32:57;;;;;;;7.78;0.95;;;23.20;89.20;;;;;;5061291;28;20417;-74
2022/09/19 11:35:40;;;;;;;7.75;1.33;;;23.50;90.00;;;;;;5054374;28;20927;-74
2022/09/19 11:38:08;;;;;;;7.85;1.17;;;23.90;89.50;;;;;;5051243;28;20398;-75
2022/09/19 11:41:04;;;;;;;8.88;1.15;;;24.10;87.40;;;;;;5051192;28;20409;-75
2022/09/19 11:43:45;;;;;;;7.13;1.00;;;24.40;87.90;;;;;;5050886;28;20849;-74
2022/09/19 11:46:40;;;;;;;8.35;0.90;;;24.60;87.00;;;;;;5050225;28;20413;-74
2022/09/19 11:49:36;;;;;;;5.70;1.20;;;24.90;85.00;;;;;;5050573;28;20958;-74
2022/09/19 11:52:22;;;;;;;6.93;1.05;;;25.00;81.10;;;;;;5038165;28;20410;-74
2022/09/19 11:55:03;;;;;;;6.85;1.20;;;25.10;82.30;;;;;;5033648;28;20787;-74
2022/09/19 11:57:54;;;;;;;6.78;1.50;;;25.10;78.00;;;;;;5055355;28;20398;-74
2022/09/19 12:00:21;;;;;;;6.55;1.10;;;25.00;80.20;;;;;;5025075;28;20854;-75
2022/09/19 12:03:03;;;;;;;10.03;1.50;;;25.20;79.40;;;;;;5062651;28;20770;-74
2022/09/19 12:05:31;;;;;;;7.43;1.20;;;25.20;79.00;;;;;;5055933;28;20416;-74
2022/09/19 12:08:00;;;;;;;9.07;1.60;;;25.30;78.50;;;;;;5032855;28;20547;-74
2022/09/19 12:10:33;;;;;;;9.73;1.30;;;25.50;79.60;;;;;;5050328;28;20413;-74
2022/09/19 12:13:11;;;;;;;6.13;1.10;;;25.50;76.50;;;;;;5049851;28;20448;-74
2022/09/19 12:15:40;;;;;;;8.48;1.20;;;25.20;75.10;;;;;;5044869;28;20416;-74
2022/09/19 12:18:16;;;;;;;6.93;1.30;;;25.40;76.00;;;;;;5058087;28;20407;-74
2022/09/19 12:20:46;;;;;;;7.60;1.08;;;25.80;75.00;;;;;;5035689;28;20413;-74
2022/09/19 12:26:09;;;;;;;6.78;1.10;;;26.10;73.80;;;;;;5050077;28;20409;-75
2022/09/19 12:28:49;;;;;;;5.43;1.00;;;26.00;71.60;;;;;;5049347;28;20516;-74
2022/09/19 12:31:20;;;;;;;8.52;1.58;;;26.00;69.80;;;;;;5049915;28;20406;-74
2022/09/19 12:33:51;;;;;;;4.53;0.80;;;25.90;70.40;;;;;;5049656;28;20482;-73
2022/09/19 12:36:33;;;;;;;7.38;1.00;;;25.80;69.40;;;;;;5049575;28;20413;-75
2022/09/19 12:39:10;;;;;;;8.00;1.00;;;26.00;70.40;;;;;;5049384;28;20413;-74
2022/09/19 12:41:58;;;;;;;7.60;1.30;;;26.20;68.60;;;;;;5049254;28;20424;-74
2022/09/19 12:44:56;;;;;;;8.30;1.20;;;26.30;69.20;;;;;;5049669;28;20506;-74
2022/09/19 12:47:34;;;;;;;7.90;1.10;;;26.40;66.40;;;;;;5049232;28;20491;-74
2022/09/19 12:50:21;;;;;;;7.22;1.10;;;26.30;65.80;;;;;;5048695;28;20413;-74
2022/09/19 12:53:03;;;;;;;6.97;1.00;;;26.20;65.60;;;;;;5030659;28;20422;-74
2022/09/19 12:55:38;;;;;;;4.15;0.88;;;26.30;65.40;;;;;;5049095;28;20404;-74
2022/09/19 12:58:20;;;;;;;5.15;1.05;;;26.20;64.70;;;;;;5030899;28;20444;-74
2022/09/19 13:00:48;;;;;;;5.57;0.93;;;26.30;64.20;;;;;;5049245;28;20413;-74
2022/09/19 13:03:26;;;;;;;7.07;1.30;;;26.40;64.00;;;;;;5048408;28;20450;-74
2022/09/19 13:06:10;;;;;;;4.77;0.70;;;26.60;64.10;;;;;;5028631;28;20458;-74
2022/09/19 13:08:49;;;;;;;5.90;0.90;;;26.10;63.50;;;;;;5047589;28;20417;-75
2022/09/19 13:11:34;;;;;;;7.35;1.30;;;26.20;64.00;;;;;;5047068;28;20928;-74
2022/09/19 13:14:18;;;;;;;6.90;0.90;;;26.30;64.90;;;;;;5031206;28;20419;-75
2022/09/19 13:25:18;;;;;;;9.40;1.20;;;24.70;64.10;;;;;;5048611;28;20401;-74
2022/09/19 13:27:46;;;;;;;7.70;1.02;;;23.40;66.30;;;;;;5048280;28;20517;-74
2022/09/19 13:30:49;;;;;;;7.53;0.98;;;22.60;67.30;;;;;;5048414;28;20401;-74
2022/09/19 13:33:22;;;;;;;7.93;1.42;;;21.80;69.70;;;;;;5060756;28;20412;-73
2022/09/19 13:35:51;;;;;;;10.70;1.20;;;21.10;73.50;;;;;;5035790;28;20457;-73